createdAt,value
2022-09-17T00:01:40.885Z,10.70
2022-09-17T00:04:09.139Z,10.70
2022-09-17T00:06:38.039Z,10.40
2022-09-17T00:09:07.908Z,10.80
2022-09-17T00:11:41.296Z,10.40
2022-09-17T00:14:14.590Z,10.50
2022-09-17T00:16:45.117Z,10.30
2022-09-17T00:19:17.801Z,10.50
2022-09-17T00:21:46.365Z,10.40
2022-09-17T00:24:16.251Z,10.70
2022-09-17T00:26:45.981Z,10.10
2022-09-17T00:29:14.419Z,10.50
2022-09-17T00:31:43.088Z,10.60
2022-09-17T00:34:12.178Z,10.60
2022-09-17T00:36:41.097Z,10.60
2022-09-17T00:39:12.214Z,10.70
2022-09-17T00:41:40.981Z,10.30
2022-09-17T00:44:45.051Z,10.70
2022-09-17T00:47:24.466Z,10.90
2022-09-17T00:49:57.615Z,10.60
2022-09-17T00:52:31.929Z,10.20
2022-09-17T00:55:12.988Z,10.30
2022-09-17T00:57:42.342Z,10.60
2022-09-17T01:00:14.677Z,10.90
2022-09-17T01:02:44.455Z,11.00
2022-09-17T01:05:14.563Z,10.40
2022-09-17T01:08:08.206Z,10.30
2022-09-17T01:10:56.129Z,10.30
2022-09-17T01:13:43.853Z,10.80
2022-09-17T01:16:20.851Z,10.60
2022-09-17T01:19:06.011Z,10.50
2022-09-17T01:21:53.730Z,11.30
2022-09-17T01:24:58.527Z,10.70
2022-09-17T01:28:25.452Z,10.30
2022-09-17T01:31:30.516Z,10.00
2022-09-17T01:34:09.093Z,10.70
2022-09-17T01:36:49.936Z,10.00
2022-09-17T01:39:31.239Z,10.20
2022-09-17T01:42:10.933Z,11.10
2022-09-17T01:44:48.982Z,10.00
2022-09-17T01:47:24.014Z,10.20
2022-09-17T01:49:58.179Z,10.50
2022-09-17T01:52:29.099Z,10.70
2022-09-17T01:55:02.925Z,11.20
2022-09-17T01:57:37.438Z,10.60
2022-09-17T02:00:09.760Z,10.80
2022-09-17T02:02:48.830Z,10.10
2022-09-17T02:05:22.679Z,10.40
2022-09-17T02:07:59.593Z,10.10
2022-09-17T02:10:34.481Z,10.50
2022-09-17T02:13:09.016Z,10.90
2022-09-17T02:15:42.147Z,10.00
2022-09-17T02:18:20.572Z,10.20
2022-09-17T02:20:53.551Z,10.50
2022-09-17T02:23:27.595Z,10.30
2022-09-17T02:26:03.485Z,9.80
2022-09-17T02:28:41.233Z,10.50
2022-09-17T02:31:09.902Z,10.10
2022-09-17T02:33:42.183Z,10.10
2022-09-17T02:36:10.778Z,10.60
2022-09-17T02:38:42.332Z,10.40
2022-09-17T02:41:18.463Z,10.10
2022-09-17T02:44:03.373Z,10.20
2022-09-17T02:47:12.103Z,10.20
2022-09-17T02:50:14.831Z,10.20
2022-09-17T02:52:58.764Z,11.10
2022-09-17T02:55:35.207Z,9.50
2022-09-17T02:58:17.478Z,10.80
2022-09-17T03:00:45.963Z,10.30
2022-09-17T03:03:21.779Z,10.10
2022-09-17T03:05:52.265Z,10.90
2022-09-17T03:08:21.159Z,10.20
2022-09-17T03:10:50.297Z,10.30
2022-09-17T03:15:48.232Z,10.40
2022-09-17T03:18:16.332Z,9.90
2022-09-17T03:20:44.554Z,10.20
2022-09-17T03:23:14.169Z,9.70
2022-09-17T03:25:42.195Z,10.20
2022-09-17T03:28:12.231Z,9.70
2022-09-17T03:30:40.253Z,9.60
2022-09-17T03:33:08.290Z,10.50
2022-09-17T03:35:36.308Z,9.10
2022-09-17T03:38:04.692Z,10.20
2022-09-17T03:40:34.073Z,9.50
2022-09-17T03:43:02.168Z,9.80
2022-09-17T03:45:30.204Z,9.90
2022-09-17T03:50:26.758Z,8.60
2022-09-17T03:52:54.818Z,8.40
2022-09-17T03:55:22.905Z,9.10
2022-09-17T03:57:52.349Z,9.40
2022-09-17T04:00:21.414Z,9.00
2022-09-17T04:02:49.656Z,8.40
2022-09-17T04:05:17.995Z,8.70
2022-09-17T04:07:46.077Z,8.40
2022-09-17T04:10:14.261Z,8.70
2022-09-17T04:12:42.517Z,8.60
2022-09-17T04:15:12.833Z,8.40
2022-09-17T04:20:10.600Z,8.30
2022-09-17T04:22:38.703Z,8.50
2022-09-17T04:25:08.303Z,9.10
2022-09-17T04:27:36.338Z,8.70
2022-09-17T04:30:04.856Z,8.50
2022-09-17T04:32:34.281Z,8.60
2022-09-17T04:35:02.409Z,8.70
2022-09-17T04:37:30.529Z,9.60
2022-09-17T04:39:58.536Z,8.40
2022-09-17T04:42:26.627Z,8.90
2022-09-17T04:44:54.870Z,8.20
2022-09-17T04:47:23.283Z,8.30
2022-09-17T04:49:52.762Z,8.50
2022-09-17T04:52:20.819Z,8.20
2022-09-17T04:54:48.853Z,9.30
2022-09-17T04:57:16.906Z,8.30
2022-09-17T04:59:45.014Z,8.10
2022-09-17T05:02:13.073Z,8.20
2022-09-17T05:04:41.288Z,7.90
2022-09-17T05:07:14.109Z,9.10
2022-09-17T05:09:42.862Z,8.40
2022-09-17T05:12:10.991Z,8.40
2022-09-17T05:14:41.805Z,7.40
2022-09-17T05:17:09.840Z,9.00
2022-09-17T05:19:37.883Z,8.60
2022-09-17T05:22:06.269Z,7.50
2022-09-17T05:24:41.567Z,8.30
2022-09-17T05:27:10.398Z,7.70
2022-09-17T05:29:38.523Z,7.90
2022-09-17T05:32:07.041Z,8.70
2022-09-17T05:34:35.092Z,7.40
2022-09-17T05:37:03.296Z,7.70
2022-09-17T05:39:31.455Z,7.50
2022-09-17T05:42:00.994Z,8.10
2022-09-17T05:44:29.123Z,7.80
2022-09-17T05:46:57.171Z,9.20
2022-09-17T05:49:25.311Z,7.30
2022-09-17T05:51:53.661Z,7.90
2022-09-17T05:54:21.884Z,7.70
2022-09-17T05:56:49.930Z,7.70
2022-09-17T05:59:19.327Z,7.50
2022-09-17T06:01:47.852Z,8.00
2022-09-17T06:04:17.819Z,8.40
2022-09-17T06:06:45.975Z,7.70
2022-09-17T06:09:14.050Z,9.00
2022-09-17T06:11:42.071Z,9.50
2022-09-17T06:14:10.591Z,8.20
2022-09-17T06:16:39.986Z,8.70
2022-09-17T06:19:08.473Z,8.50
2022-09-17T06:21:36.575Z,8.20
2022-09-17T06:24:04.863Z,8.90
2022-09-17T06:26:33.023Z,10.00
2022-09-17T06:31:30.088Z,9.30
2022-09-17T06:34:01.930Z,10.10
2022-09-17T06:36:30.037Z,10.80
2022-09-17T06:38:58.697Z,10.00
2022-09-17T06:41:28.208Z,10.10
2022-09-17T06:43:57.309Z,10.80
2022-09-17T06:46:25.598Z,11.40
2022-09-17T06:48:53.972Z,11.10
2022-09-17T06:51:23.634Z,11.50
2022-09-17T06:53:51.866Z,11.60
2022-09-17T06:56:19.977Z,12.20
2022-09-17T06:58:48.035Z,11.40
2022-09-17T07:01:16.175Z,13.30
2022-09-17T07:03:44.851Z,12.70
2022-09-17T07:06:13.541Z,12.90
2022-09-17T07:08:43.621Z,12.90
2022-09-17T07:11:11.732Z,12.80
2022-09-17T07:13:40.436Z,12.80
2022-09-17T07:16:08.907Z,12.70
2022-09-17T07:18:37.151Z,12.40
2022-09-17T07:21:07.828Z,12.40
2022-09-17T07:23:38.436Z,12.40
2022-09-17T07:26:13.239Z,12.30
2022-09-17T07:28:42.074Z,12.20
2022-09-17T07:31:15.801Z,12.20
2022-09-17T07:33:45.574Z,12.30
2022-09-17T07:36:17.828Z,12.60
2022-09-17T07:38:46.159Z,12.90
2022-09-17T07:41:17.828Z,13.20
2022-09-17T07:43:46.292Z,13.50
2022-09-17T07:46:17.659Z,13.80
2022-09-17T07:48:46.448Z,14.10
2022-09-17T07:51:17.735Z,14.20
2022-09-17T07:53:46.683Z,14.20
2022-09-17T07:56:16.428Z,14.10
2022-09-17T07:58:44.838Z,14.40
2022-09-17T08:01:15.334Z,14.60
2022-09-17T08:03:44.907Z,15.00
2022-09-17T08:06:16.171Z,14.90
2022-09-17T08:08:44.538Z,14.90
2022-09-17T08:11:32.436Z,14.90
2022-09-17T08:14:04.664Z,14.70
2022-09-17T08:16:32.811Z,15.00
2022-09-17T08:19:01.083Z,15.50
2022-09-17T08:21:29.214Z,15.20
2022-09-17T08:23:57.647Z,16.20
2022-09-17T08:26:27.898Z,15.50
2022-09-17T08:28:57.217Z,17.20
2022-09-17T08:31:28.376Z,15.90
2022-09-17T08:33:56.957Z,16.90
2022-09-17T08:36:26.421Z,17.90
2022-09-17T08:38:55.944Z,16.80
2022-09-17T08:41:37.668Z,16.80
2022-09-17T08:44:21.422Z,17.10
2022-09-17T08:46:53.157Z,17.10
2022-09-17T08:49:36.120Z,18.00
2022-09-17T08:52:39.534Z,17.20
2022-09-17T08:55:34.901Z,17.40
2022-09-17T08:58:30.557Z,17.70
2022-09-17T09:01:12.228Z,17.90
2022-09-17T09:04:00.578Z,18.00
2022-09-17T09:06:34.181Z,18.40
2022-09-17T09:09:08.681Z,17.80
2022-09-17T09:11:37.205Z,17.60
2022-09-17T09:14:16.653Z,17.60
2022-09-17T09:16:46.254Z,17.40
2022-09-17T09:19:23.182Z,17.20
2022-09-17T09:22:05.309Z,17.40
2022-09-17T09:24:41.597Z,17.50
2022-09-17T09:27:19.035Z,17.60
2022-09-17T09:30:03.698Z,17.90
2022-09-17T09:32:52.784Z,18.60
2022-09-17T09:35:24.351Z,18.30
2022-09-17T09:38:00.748Z,18.20
2022-09-17T09:40:38.881Z,18.60
2022-09-17T09:43:20.091Z,19.30
2022-09-17T09:46:49.436Z,19.70
2022-09-17T09:49:31.755Z,20.10
2022-09-17T09:52:20.045Z,20.40
2022-09-17T09:55:05.421Z,20.10
2022-09-17T09:57:44.461Z,19.60
2022-09-17T10:00:32.055Z,19.50
2022-09-17T10:03:13.612Z,19.50
2022-09-17T10:05:53.141Z,19.40
2022-09-17T10:08:22.293Z,19.90
2022-09-17T10:10:59.959Z,20.30
2022-09-17T10:13:31.105Z,20.30
2022-09-17T10:16:18.856Z,19.70
2022-09-17T10:18:49.741Z,19.20
2022-09-17T10:21:24.565Z,19.40
2022-09-17T10:23:53.981Z,19.80
2022-09-17T10:26:26.136Z,19.80
2022-09-17T10:28:57.000Z,19.90
2022-09-17T10:31:25.825Z,20.20
2022-09-17T10:33:59.063Z,20.50
2022-09-17T10:36:43.493Z,20.00
2022-09-17T10:39:36.664Z,19.70
2022-09-17T10:42:06.967Z,19.30
2022-09-17T10:44:37.225Z,19.50
2022-09-17T10:47:14.912Z,19.30
2022-09-17T10:49:49.101Z,20.70
2022-09-17T10:52:26.630Z,18.90
2022-09-17T10:55:27.831Z,19.40
2022-09-17T10:58:19.402Z,19.60
2022-09-17T11:01:03.277Z,19.20
2022-09-17T11:04:09.631Z,17.60
2022-09-17T11:07:19.069Z,19.10
2022-09-17T11:09:58.284Z,17.10
2022-09-17T11:12:42.969Z,16.00
2022-09-17T11:15:32.763Z,15.70
2022-09-17T11:18:22.943Z,13.40
2022-09-17T11:21:12.393Z,13.30
2022-09-17T11:24:18.293Z,15.90
2022-09-17T11:26:55.817Z,17.70
2022-09-17T11:29:53.362Z,18.00
2022-09-17T11:32:45.019Z,17.30
2022-09-17T11:35:18.090Z,18.10
2022-09-17T11:37:59.642Z,18.80
2022-09-17T11:40:39.050Z,21.30
2022-09-17T11:43:20.240Z,20.10
2022-09-17T11:46:00.123Z,18.80
2022-09-17T11:48:38.405Z,18.30
2022-09-17T11:51:29.932Z,17.30
2022-09-17T11:54:07.815Z,16.80
2022-09-17T11:56:43.885Z,15.80
2022-09-17T11:59:21.512Z,16.60
2022-09-17T12:01:58.640Z,16.90
2022-09-17T12:04:39.161Z,17.90
2022-09-17T12:07:23.134Z,18.80
2022-09-17T12:09:58.234Z,19.00
2022-09-17T12:12:49.106Z,19.10
2022-09-17T12:15:23.551Z,17.80
2022-09-17T12:18:20.533Z,17.50
2022-09-17T12:20:51.837Z,17.30
2022-09-17T12:23:32.712Z,17.20
2022-09-17T12:26:17.023Z,16.90
2022-09-17T12:28:58.813Z,17.10
2022-09-17T12:31:36.826Z,16.60
2022-09-17T12:34:27.257Z,16.50
2022-09-17T12:37:08.699Z,17.30
2022-09-17T12:40:10.670Z,17.30
2022-09-17T12:43:02.507Z,17.40
2022-09-17T12:45:50.765Z,18.00
2022-09-17T12:48:40.949Z,17.40
2022-09-17T12:51:27.387Z,17.10
2022-09-17T12:54:11.748Z,17.50
2022-09-17T12:56:55.338Z,16.10
2022-09-17T12:59:29.854Z,16.40
2022-09-17T13:02:03.952Z,16.00
2022-09-17T13:05:06.728Z,15.70
2022-09-17T13:08:17.465Z,15.70
2022-09-17T13:11:28.815Z,14.20
2022-09-17T13:14:07.181Z,15.20
2022-09-17T13:16:42.565Z,15.10
2022-09-17T13:19:27.204Z,15.70
2022-09-17T13:22:02.785Z,16.10
2022-09-17T13:24:33.278Z,17.80
2022-09-17T13:27:04.401Z,17.60
2022-09-17T13:30:03.776Z,18.40
2022-09-17T13:32:46.820Z,20.60
2022-09-17T13:35:51.402Z,20.50
2022-09-17T13:38:23.884Z,20.60
2022-09-17T13:40:53.446Z,19.80
2022-09-17T13:43:27.750Z,18.80
2022-09-17T13:46:12.875Z,17.70
2022-09-17T13:49:00.853Z,17.10
2022-09-17T13:51:53.900Z,16.40
2022-09-17T13:54:25.659Z,13.70
2022-09-17T13:57:18.753Z,13.30
2022-09-17T13:59:59.397Z,12.60
2022-09-17T14:02:36.620Z,11.90
2022-09-17T14:05:37.590Z,11.50
2022-09-17T14:08:31.479Z,11.20
2022-09-17T14:11:24.359Z,10.90
2022-09-17T14:13:53.860Z,10.80
2022-09-17T14:16:47.136Z,10.60
2022-09-17T14:19:36.915Z,10.90
2022-09-17T14:22:16.274Z,10.90
2022-09-17T14:24:53.006Z,13.20
2022-09-17T14:27:47.685Z,14.40
2022-09-17T14:30:20.024Z,14.70
2022-09-17T14:33:04.408Z,14.90
2022-09-17T14:35:37.757Z,15.10
2022-09-17T14:38:15.170Z,16.80
2022-09-17T14:40:48.483Z,16.50
2022-09-17T14:43:22.985Z,16.60
2022-09-17T14:45:53.942Z,16.70
2022-09-17T14:48:31.057Z,16.60
2022-09-17T14:51:29.015Z,16.30
2022-09-17T14:54:21.441Z,16.20
2022-09-17T14:56:55.534Z,16.50
2022-09-17T14:59:50.486Z,16.90
2022-09-17T15:02:32.843Z,16.80
2022-09-17T15:05:02.143Z,16.20
2022-09-17T15:07:30.490Z,16.10
2022-09-17T15:10:10.296Z,15.60
2022-09-17T15:12:40.959Z,16.20
2022-09-17T15:15:20.725Z,17.80
2022-09-17T15:17:50.911Z,17.10
2022-09-17T15:20:23.795Z,17.10
2022-09-17T15:23:08.978Z,17.10
2022-09-17T15:25:38.957Z,17.00
2022-09-17T15:28:22.900Z,17.10
2022-09-17T15:30:52.588Z,17.00
2022-09-17T15:33:21.115Z,16.60
2022-09-17T15:36:02.173Z,15.70
2022-09-17T15:38:32.903Z,14.20
2022-09-17T15:41:25.991Z,14.20
2022-09-17T15:44:13.360Z,14.20
2022-09-17T15:46:43.792Z,14.10
2022-09-17T15:49:31.594Z,13.50
2022-09-17T15:52:31.272Z,13.20
2022-09-17T15:54:59.547Z,12.90
2022-09-17T15:57:28.789Z,12.20
2022-09-17T16:00:06.796Z,13.10
2022-09-17T16:02:34.969Z,12.40
2022-09-17T16:05:51.815Z,12.10
2022-09-17T16:08:34.309Z,11.90
2022-09-17T16:11:02.691Z,11.90
2022-09-17T16:13:30.803Z,11.80
2022-09-17T16:16:00.488Z,12.90
2022-09-17T16:18:28.545Z,12.00
2022-09-17T16:20:56.577Z,12.90
2022-09-17T16:23:24.830Z,11.80
2022-09-17T16:25:53.652Z,12.60
2022-09-17T16:28:21.833Z,12.40
2022-09-17T16:30:51.177Z,12.40
2022-09-17T16:33:20.775Z,12.00
2022-09-17T16:35:48.802Z,12.10
2022-09-17T16:38:17.038Z,12.20
2022-09-17T16:40:47.572Z,12.50
2022-09-17T16:43:16.032Z,12.10
2022-09-17T16:45:44.340Z,13.20
2022-09-17T16:50:42.964Z,11.70
2022-09-17T16:53:11.105Z,12.10
2022-09-17T16:55:40.000Z,11.90
2022-09-17T16:58:08.104Z,12.00
2022-09-17T17:00:37.280Z,12.00
2022-09-17T17:03:06.784Z,12.30
2022-09-17T17:05:38.531Z,11.60
2022-09-17T17:08:09.176Z,11.50
2022-09-17T17:10:38.944Z,11.20
2022-09-17T17:13:07.312Z,11.40
2022-09-17T17:15:35.380Z,11.10
2022-09-17T17:18:03.449Z,11.00
2022-09-17T17:20:32.040Z,11.20
2022-09-17T17:25:32.199Z,11.90
2022-09-17T17:28:00.467Z,11.30
2022-09-17T17:30:34.195Z,11.30
2022-09-17T17:33:03.946Z,11.10
2022-09-17T17:35:32.067Z,10.70
2022-09-17T17:38:00.172Z,10.90
2022-09-17T17:40:29.667Z,10.70
2022-09-17T17:42:57.830Z,10.70
2022-09-17T17:45:26.159Z,10.20
2022-09-17T17:47:54.262Z,10.00
2022-09-17T17:50:22.325Z,10.10
2022-09-17T17:52:50.775Z,10.10
2022-09-17T17:55:18.846Z,10.00
2022-09-17T17:57:48.372Z,10.40
2022-09-17T18:00:18.326Z,9.90
2022-09-17T18:02:46.549Z,9.90
2022-09-17T18:05:15.115Z,9.40
2022-09-17T18:07:43.152Z,9.30
2022-09-17T18:10:11.647Z,11.00
2022-09-17T18:12:39.951Z,9.90
2022-09-17T18:15:10.404Z,9.50
2022-09-17T18:17:38.427Z,9.50
2022-09-17T18:20:07.251Z,10.40
2022-09-17T18:22:35.308Z,9.70
2022-09-17T18:25:03.368Z,11.00
2022-09-17T18:27:31.364Z,10.10
2022-09-17T18:29:59.394Z,9.80
2022-09-17T18:32:29.296Z,10.60
2022-09-17T18:34:57.440Z,10.20
2022-09-17T18:37:25.455Z,9.70
2022-09-17T18:39:58.791Z,10.60
2022-09-17T18:42:27.370Z,10.00
2022-09-17T18:44:55.509Z,10.40
2022-09-17T18:47:23.561Z,9.80
2022-09-17T18:49:53.155Z,9.90
2022-09-17T18:52:21.587Z,9.70
2022-09-17T18:54:49.639Z,9.50
2022-09-17T18:57:17.868Z,9.80
2022-09-17T18:59:46.295Z,9.80
2022-09-17T19:02:14.813Z,9.40
2022-09-17T19:04:42.903Z,9.10
2022-09-17T19:07:12.503Z,9.50
2022-09-17T19:09:40.569Z,9.20
2022-09-17T19:12:08.620Z,9.80
2022-09-17T19:14:36.890Z,9.40
2022-09-17T19:17:05.087Z,9.40
2022-09-17T19:19:33.134Z,9.90
2022-09-17T19:22:01.189Z,9.20
2022-09-17T19:24:30.602Z,10.60
2022-09-17T19:27:01.322Z,9.80
2022-09-17T19:29:29.410Z,10.60
2022-09-17T19:31:57.506Z,9.50
2022-09-17T19:34:25.652Z,9.50
2022-09-17T19:36:53.713Z,9.60
2022-09-17T19:39:21.772Z,9.40
2022-09-17T19:41:51.152Z,10.70
2022-09-17T19:44:23.508Z,9.70
2022-09-17T19:49:21.145Z,9.70
2022-09-17T19:51:49.158Z,10.60
2022-09-17T19:54:17.198Z,10.60
2022-09-17T19:56:45.374Z,9.30
2022-09-17T19:59:14.859Z,10.50
2022-09-17T20:01:49.258Z,9.80
2022-09-17T20:04:18.072Z,9.60
2022-09-17T20:06:46.121Z,9.90
2022-09-17T20:09:14.135Z,9.90
2022-09-17T20:11:42.220Z,9.90
2022-09-17T20:14:11.757Z,9.80
2022-09-17T20:16:42.379Z,9.10
2022-09-17T20:19:15.987Z,9.00
2022-09-17T20:21:44.111Z,9.10
2022-09-17T20:24:12.717Z,9.50
2022-09-17T20:26:40.808Z,9.10
2022-09-17T20:29:08.914Z,8.60
2022-09-17T20:31:37.009Z,8.50
2022-09-17T20:34:06.618Z,8.50
2022-09-17T20:36:36.394Z,8.80
2022-09-17T20:39:12.361Z,8.80
2022-09-17T20:41:43.255Z,8.70
2022-09-17T20:44:11.340Z,9.30
2022-09-17T20:46:39.494Z,8.60
2022-09-17T20:49:08.975Z,8.90
2022-09-17T20:51:37.080Z,8.40
2022-09-17T20:54:05.691Z,8.50
2022-09-17T20:56:35.318Z,9.00
2022-09-17T20:59:13.190Z,8.70
2022-09-17T21:01:44.593Z,8.20
2022-09-17T21:04:16.930Z,8.90
2022-09-17T21:06:45.216Z,9.00
2022-09-17T21:09:16.664Z,8.30
2022-09-17T21:11:46.175Z,8.50
2022-09-17T21:14:17.348Z,8.50
2022-09-17T21:16:46.501Z,8.20
2022-09-17T21:19:16.896Z,8.10
2022-09-17T21:21:45.098Z,8.80
2022-09-17T21:24:13.255Z,8.10
2022-09-17T21:26:41.390Z,9.20
2022-09-17T21:29:09.669Z,8.70
2022-09-17T21:31:38.854Z,7.70
2022-09-17T21:34:10.613Z,8.30
2022-09-17T21:36:42.070Z,7.80
2022-09-17T21:39:14.056Z,8.10
2022-09-17T21:41:43.066Z,8.10
2022-09-17T21:44:12.297Z,7.80
2022-09-17T21:46:41.904Z,8.20
2022-09-17T21:49:10.736Z,8.00
2022-09-17T21:51:42.588Z,8.30
2022-09-17T21:54:12.840Z,9.10
2022-09-17T21:56:41.025Z,7.70
2022-09-17T21:59:12.352Z,9.20
2022-09-17T22:01:43.903Z,7.90
2022-09-17T22:04:15.967Z,8.50
2022-09-17T22:06:46.410Z,7.90
2022-09-17T22:09:18.537Z,7.80
2022-09-17T22:11:46.937Z,8.40
2022-09-17T22:14:19.372Z,8.20
2022-09-17T22:16:50.455Z,9.20
2022-09-17T22:19:20.943Z,7.80
2022-09-17T22:21:52.829Z,8.60
2022-09-17T22:24:22.667Z,8.20
2022-09-17T22:26:57.817Z,7.90
2022-09-17T22:29:28.484Z,7.90
2022-09-17T22:34:25.864Z,9.20
2022-09-17T22:36:55.237Z,8.10
2022-09-17T22:39:23.363Z,7.90
2022-09-17T22:41:51.537Z,8.70
2022-09-17T22:44:21.439Z,8.20
2022-09-17T22:46:52.009Z,8.10
2022-09-17T22:49:21.107Z,8.00
2022-09-17T22:51:49.371Z,8.60
2022-09-17T22:54:19.775Z,7.70
2022-09-17T22:56:48.909Z,7.60
2022-09-17T22:59:18.542Z,7.40
2022-09-17T23:01:46.905Z,7.90
2022-09-17T23:04:15.096Z,7.60
2022-09-17T23:06:43.171Z,7.20
2022-09-17T23:09:13.998Z,7.70
2022-09-17T23:11:43.712Z,8.20
2022-09-17T23:14:13.735Z,8.10
2022-09-17T23:16:44.076Z,7.30
2022-09-17T23:19:12.473Z,7.70
2022-09-17T23:21:40.863Z,7.60
2022-09-17T23:24:09.919Z,7.80
2022-09-17T23:26:38.001Z,9.00
2022-09-17T23:29:08.446Z,8.60
2022-09-17T23:31:36.622Z,8.30
2022-09-17T23:34:06.980Z,8.10
2022-09-17T23:36:38.264Z,9.60
2022-09-17T23:39:08.195Z,8.40
2022-09-17T23:41:39.906Z,8.50
2022-09-17T23:44:15.383Z,8.80
2022-09-17T23:46:46.083Z,8.40
2022-09-17T23:49:16.011Z,9.00
2022-09-17T23:51:44.143Z,7.80
2022-09-17T23:54:12.437Z,8.60
2022-09-17T23:56:40.507Z,9.00
2022-09-17T23:59:12.156Z,9.00
